sensor_id;sensor_type;location;lat;lon;timestamp;temperature;humidity
25438;DHT22;13364;49.084;9.978;2022-10-16T00:02:25;14.20;99.90
25438;DHT22;13364;49.084;9.978;2022-10-16T00:04:52;14.20;99.90
25438;DHT22;13364;49.084;9.978;2022-10-16T00:07:21;14.20;99.90
25438;DHT22;13364;49.084;9.978;2022-10-16T00:09:48;14.10;99.90
25438;DHT22;13364;49.084;9.978;2022-10-16T00:12:15;14.10;99.90
25438;DHT22;13364;49.084;9.978;2022-10-16T00:14:42;14.10;99.90
25438;DHT22;13364;49.084;9.978;2022-10-16T00:17:10;14.10;99.90
25438;DHT22;13364;49.084;9.978;2022-10-16T00:19:38;14.10;99.90
25438;DHT22;13364;49.084;9.978;2022-10-16T00:22:05;14.10;99.90
25438;DHT22;13364;49.084;9.978;2022-10-16T00:24:32;14.10;99.90
25438;DHT22;13364;49.084;9.978;2022-10-16T00:26:59;14.10;99.90
25438;DHT22;13364;49.084;9.978;2022-10-16T00:33:45;14.10;99.90
25438;DHT22;13364;49.084;9.978;2022-10-16T00:36:15;14.10;99.90
25438;DHT22;13364;49.084;9.978;2022-10-16T00:38:42;14.10;99.90
25438;DHT22;13364;49.084;9.978;2022-10-16T00:41:15;14.10;99.90
25438;DHT22;13364;49.084;9.978;2022-10-16T00:43:49;14.10;99.90
25438;DHT22;13364;49.084;9.978;2022-10-16T00:46:26;14.20;99.90
25438;DHT22;13364;49.084;9.978;2022-10-16T00:49:12;14.20;99.90
25438;DHT22;13364;49.084;9.978;2022-10-16T00:51:46;14.20;99.90
25438;DHT22;13364;49.084;9.978;2022-10-16T00:54:19;14.20;99.90
25438;DHT22;13364;49.084;9.978;2022-10-16T00:56:47;14.20;99.90
25438;DHT22;13364;49.084;9.978;2022-10-16T00:59:19;14.20;99.90
25438;DHT22;13364;49.084;9.978;2022-10-16T01:01:47;14.20;99.90
25438;DHT22;13364;49.084;9.978;2022-10-16T01:04:15;14.30;99.90
25438;DHT22;13364;49.084;9.978;2022-10-16T01:15:27;14.30;99.90
25438;DHT22;13364;49.084;9.978;2022-10-16T01:18:13;14.30;99.90
25438;DHT22;13364;49.084;9.978;2022-10-16T01:21:02;14.30;99.90
25438;DHT22;13364;49.084;9.978;2022-10-16T01:23:38;14.30;99.90
25438;DHT22;13364;49.084;9.978;2022-10-16T01:32:33;14.40;99.90
25438;DHT22;13364;49.084;9.978;2022-10-16T01:35:30;14.40;99.90
25438;DHT22;13364;49.084;9.978;2022-10-16T01:38:07;14.40;99.90
25438;DHT22;13364;49.084;9.978;2022-10-16T01:40:39;14.40;99.90
25438;DHT22;13364;49.084;9.978;2022-10-16T01:43:20;14.40;99.90
25438;DHT22;13364;49.084;9.978;2022-10-16T01:45:49;14.40;99.90
25438;DHT22;13364;49.084;9.978;2022-10-16T01:48:19;14.30;99.90
25438;DHT22;13364;49.084;9.978;2022-10-16T01:51:07;14.40;99.90
25438;DHT22;13364;49.084;9.978;2022-10-16T01:53:36;14.40;99.90
25438;DHT22;13364;49.084;9.978;2022-10-16T01:56:06;14.30;99.90
25438;DHT22;13364;49.084;9.978;2022-10-16T01:58:37;14.30;99.90
25438;DHT22;13364;49.084;9.978;2022-10-16T02:01:07;14.30;99.90
25438;DHT22;13364;49.084;9.978;2022-10-16T02:03:37;14.30;99.90
25438;DHT22;13364;49.084;9.978;2022-10-16T02:06:07;14.30;99.90
25438;DHT22;13364;49.084;9.978;2022-10-16T02:08:35;14.30;99.90
25438;DHT22;13364;49.084;9.978;2022-10-16T02:11:02;14.30;99.90
25438;DHT22;13364;49.084;9.978;2022-10-16T02:13:43;14.30;99.90
25438;DHT22;13364;49.084;9.978;2022-10-16T02:16:13;14.30;99.90
25438;DHT22;13364;49.084;9.978;2022-10-16T02:18:42;14.30;99.90
25438;DHT22;13364;49.084;9.978;2022-10-16T02:21:25;14.30;99.90
25438;DHT22;13364;49.084;9.978;2022-10-16T02:24:26;14.30;99.90
25438;DHT22;13364;49.084;9.978;2022-10-16T02:26:57;14.30;99.90
25438;DHT22;13364;49.084;9.978;2022-10-16T02:29:29;14.30;99.90
25438;DHT22;13364;49.084;9.978;2022-10-16T02:32:00;14.30;99.90
25438;DHT22;13364;49.084;9.978;2022-10-16T02:34:30;14.30;99.90
25438;DHT22;13364;49.084;9.978;2022-10-16T02:37:01;14.30;99.90
25438;DHT22;13364;49.084;9.978;2022-10-16T02:39:28;14.30;99.90
25438;DHT22;13364;49.084;9.978;2022-10-16T02:41:56;14.30;99.90
25438;DHT22;13364;49.084;9.978;2022-10-16T02:44:23;14.30;99.90
25438;DHT22;13364;49.084;9.978;2022-10-16T02:46:50;14.30;99.90
25438;DHT22;13364;49.084;9.978;2022-10-16T02:49:17;14.30;99.90
25438;DHT22;13364;49.084;9.978;2022-10-16T02:51:44;14.30;99.90
25438;DHT22;13364;49.084;9.978;2022-10-16T02:54:11;14.30;99.90
25438;DHT22;13364;49.084;9.978;2022-10-16T02:56:39;14.30;99.90
25438;DHT22;13364;49.084;9.978;2022-10-16T02:59:06;14.30;99.90
25438;DHT22;13364;49.084;9.978;2022-10-16T03:01:34;14.30;99.90
25438;DHT22;13364;49.084;9.978;2022-10-16T03:04:02;14.30;99.90
25438;DHT22;13364;49.084;9.978;2022-10-16T03:06:29;14.30;99.90
25438;DHT22;13364;49.084;9.978;2022-10-16T03:08:56;14.40;99.90
25438;DHT22;13364;49.084;9.978;2022-10-16T03:11:23;14.40;99.90
25438;DHT22;13364;49.084;9.978;2022-10-16T03:13:50;14.40;99.90
25438;DHT22;13364;49.084;9.978;2022-10-16T03:16:17;14.40;99.90
25438;DHT22;13364;49.084;9.978;2022-10-16T03:18:48;14.40;99.90
25438;DHT22;13364;49.084;9.978;2022-10-16T03:21:16;14.40;99.90
25438;DHT22;13364;49.084;9.978;2022-10-16T03:23:43;14.40;99.90
25438;DHT22;13364;49.084;9.978;2022-10-16T03:26:10;14.40;99.90
25438;DHT22;13364;49.084;9.978;2022-10-16T03:28:37;14.40;99.90
25438;DHT22;13364;49.084;9.978;2022-10-16T03:31:04;14.30;99.90
25438;DHT22;13364;49.084;9.978;2022-10-16T03:33:31;14.40;99.90
25438;DHT22;13364;49.084;9.978;2022-10-16T03:35:58;14.30;99.90
25438;DHT22;13364;49.084;9.978;2022-10-16T03:38:25;14.30;99.90
25438;DHT22;13364;49.084;9.978;2022-10-16T03:40:52;14.30;99.90
25438;DHT22;13364;49.084;9.978;2022-10-16T03:43:20;14.30;99.90
25438;DHT22;13364;49.084;9.978;2022-10-16T03:45:47;14.30;99.90
25438;DHT22;13364;49.084;9.978;2022-10-16T03:48:14;14.30;99.90
25438;DHT22;13364;49.084;9.978;2022-10-16T03:50:41;14.30;99.90
25438;DHT22;13364;49.084;9.978;2022-10-16T03:53:08;14.30;99.90
25438;DHT22;13364;49.084;9.978;2022-10-16T03:55:35;14.30;99.90
25438;DHT22;13364;49.084;9.978;2022-10-16T03:58:02;14.30;99.90
25438;DHT22;13364;49.084;9.978;2022-10-16T04:00:29;14.30;99.90
25438;DHT22;13364;49.084;9.978;2022-10-16T04:02:56;14.30;99.90
25438;DHT22;13364;49.084;9.978;2022-10-16T04:05:23;14.30;99.90
25438;DHT22;13364;49.084;9.978;2022-10-16T04:07:50;14.30;99.90
25438;DHT22;13364;49.084;9.978;2022-10-16T04:10:17;14.30;99.90
25438;DHT22;13364;49.084;9.978;2022-10-16T04:12:45;14.30;99.90
25438;DHT22;13364;49.084;9.978;2022-10-16T04:15:12;14.20;99.90
25438;DHT22;13364;49.084;9.978;2022-10-16T04:17:39;14.20;99.90
25438;DHT22;13364;49.084;9.978;2022-10-16T04:20:07;14.20;99.90
25438;DHT22;13364;49.084;9.978;2022-10-16T04:22:34;14.10;99.90
25438;DHT22;13364;49.084;9.978;2022-10-16T04:25:01;14.10;99.90
25438;DHT22;13364;49.084;9.978;2022-10-16T04:27:28;14.10;99.90
25438;DHT22;13364;49.084;9.978;2022-10-16T04:29:56;14.10;99.90
25438;DHT22;13364;49.084;9.978;2022-10-16T04:32:23;14.10;99.90
25438;DHT22;13364;49.084;9.978;2022-10-16T04:34:50;14.00;99.90
25438;DHT22;13364;49.084;9.978;2022-10-16T04:37:17;14.00;99.90
25438;DHT22;13364;49.084;9.978;2022-10-16T04:39:44;14.00;99.90
25438;DHT22;13364;49.084;9.978;2022-10-16T04:42:11;14.00;99.90
25438;DHT22;13364;49.084;9.978;2022-10-16T04:44:38;13.90;99.90
25438;DHT22;13364;49.084;9.978;2022-10-16T04:47:05;13.90;99.90
25438;DHT22;13364;49.084;9.978;2022-10-16T04:49:32;13.80;99.90
25438;DHT22;13364;49.084;9.978;2022-10-16T04:51:59;13.80;99.90
25438;DHT22;13364;49.084;9.978;2022-10-16T04:54:26;13.70;99.90
25438;DHT22;13364;49.084;9.978;2022-10-16T04:56:53;13.70;99.90
25438;DHT22;13364;49.084;9.978;2022-10-16T04:59:21;13.70;99.90
25438;DHT22;13364;49.084;9.978;2022-10-16T05:01:49;13.70;99.90
25438;DHT22;13364;49.084;9.978;2022-10-16T05:04:16;13.70;99.90
25438;DHT22;13364;49.084;9.978;2022-10-16T05:06:43;13.70;99.90
25438;DHT22;13364;49.084;9.978;2022-10-16T05:09:10;13.60;99.90
25438;DHT22;13364;49.084;9.978;2022-10-16T05:11:37;13.60;99.90
25438;DHT22;13364;49.084;9.978;2022-10-16T05:14:04;13.60;99.90
25438;DHT22;13364;49.084;9.978;2022-10-16T05:16:31;13.60;99.90
25438;DHT22;13364;49.084;9.978;2022-10-16T05:18:58;13.60;99.90
25438;DHT22;13364;49.084;9.978;2022-10-16T05:21:45;13.60;99.90
25438;DHT22;13364;49.084;9.978;2022-10-16T05:24:12;13.60;99.90
25438;DHT22;13364;49.084;9.978;2022-10-16T05:26:39;13.60;99.90
25438;DHT22;13364;49.084;9.978;2022-10-16T05:29:06;13.60;99.90
25438;DHT22;13364;49.084;9.978;2022-10-16T05:31:33;13.60;99.90
25438;DHT22;13364;49.084;9.978;2022-10-16T05:34:01;13.60;99.90
25438;DHT22;13364;49.084;9.978;2022-10-16T05:36:28;13.60;99.90
25438;DHT22;13364;49.084;9.978;2022-10-16T05:38:55;13.70;99.90
25438;DHT22;13364;49.084;9.978;2022-10-16T05:41:22;13.60;99.90
25438;DHT22;13364;49.084;9.978;2022-10-16T05:43:53;13.70;99.90
25438;DHT22;13364;49.084;9.978;2022-10-16T05:46:20;13.70;99.90
25438;DHT22;13364;49.084;9.978;2022-10-16T05:48:47;13.70;99.90
25438;DHT22;13364;49.084;9.978;2022-10-16T05:51:14;13.70;99.90
25438;DHT22;13364;49.084;9.978;2022-10-16T05:53:42;13.60;99.90
25438;DHT22;13364;49.084;9.978;2022-10-16T05:56:11;13.60;99.90
25438;DHT22;13364;49.084;9.978;2022-10-16T05:58:39;13.60;99.90
25438;DHT22;13364;49.084;9.978;2022-10-16T06:01:14;13.70;99.90
25438;DHT22;13364;49.084;9.978;2022-10-16T06:03:41;13.60;99.90
25438;DHT22;13364;49.084;9.978;2022-10-16T06:06:20;13.60;99.90
25438;DHT22;13364;49.084;9.978;2022-10-16T06:08:48;13.60;99.90
25438;DHT22;13364;49.084;9.978;2022-10-16T06:11:24;13.60;99.90
25438;DHT22;13364;49.084;9.978;2022-10-16T06:13:53;13.70;99.90
25438;DHT22;13364;49.084;9.978;2022-10-16T06:16:20;13.60;99.90
25438;DHT22;13364;49.084;9.978;2022-10-16T06:22:07;13.70;99.90
25438;DHT22;13364;49.084;9.978;2022-10-16T06:24:34;13.60;99.90
25438;DHT22;13364;49.084;9.978;2022-10-16T06:27:01;13.60;99.90
25438;DHT22;13364;49.084;9.978;2022-10-16T06:29:28;13.60;99.90
25438;DHT22;13364;49.084;9.978;2022-10-16T06:31:55;13.60;99.90
25438;DHT22;13364;49.084;9.978;2022-10-16T06:34:22;13.60;99.90
25438;DHT22;13364;49.084;9.978;2022-10-16T06:36:49;13.60;99.90
25438;DHT22;13364;49.084;9.978;2022-10-16T06:39:16;13.60;99.90
25438;DHT22;13364;49.084;9.978;2022-10-16T06:41:43;13.60;99.90
25438;DHT22;13364;49.084;9.978;2022-10-16T06:44:14;13.60;99.90
25438;DHT22;13364;49.084;9.978;2022-10-16T06:46:41;13.60;99.90
25438;DHT22;13364;49.084;9.978;2022-10-16T06:49:08;13.60;99.90
25438;DHT22;13364;49.084;9.978;2022-10-16T06:51:35;13.60;99.90
25438;DHT22;13364;49.084;9.978;2022-10-16T06:54:09;13.60;99.90
25438;DHT22;13364;49.084;9.978;2022-10-16T06:56:36;13.70;99.90
25438;DHT22;13364;49.084;9.978;2022-10-16T06:59:04;13.70;99.90
25438;DHT22;13364;49.084;9.978;2022-10-16T07:01:32;13.70;99.90
25438;DHT22;13364;49.084;9.978;2022-10-16T07:04:00;13.70;99.90
25438;DHT22;13364;49.084;9.978;2022-10-16T07:06:31;13.80;99.90
25438;DHT22;13364;49.084;9.978;2022-10-16T07:09:04;13.80;99.90
25438;DHT22;13364;49.084;9.978;2022-10-16T07:11:32;13.90;99.90
25438;DHT22;13364;49.084;9.978;2022-10-16T07:14:00;13.90;99.90
25438;DHT22;13364;49.084;9.978;2022-10-16T07:16:29;14.00;99.90
25438;DHT22;13364;49.084;9.978;2022-10-16T07:18:58;14.10;99.90
25438;DHT22;13364;49.084;9.978;2022-10-16T07:21:34;14.10;99.90
25438;DHT22;13364;49.084;9.978;2022-10-16T07:24:07;14.20;99.90
25438;DHT22;13364;49.084;9.978;2022-10-16T07:26:37;14.30;99.90
25438;DHT22;13364;49.084;9.978;2022-10-16T07:29:20;14.40;99.90
25438;DHT22;13364;49.084;9.978;2022-10-16T07:31:48;14.40;99.90
25438;DHT22;13364;49.084;9.978;2022-10-16T07:34:17;14.50;99.90
25438;DHT22;13364;49.084;9.978;2022-10-16T07:36:48;14.60;99.90
25438;DHT22;13364;49.084;9.978;2022-10-16T07:39:15;14.60;99.90
25438;DHT22;13364;49.084;9.978;2022-10-16T07:41:43;14.60;99.90
25438;DHT22;13364;49.084;9.978;2022-10-16T07:44:10;14.70;99.90
25438;DHT22;13364;49.084;9.978;2022-10-16T07:46:37;14.80;99.90
25438;DHT22;13364;49.084;9.978;2022-10-16T07:49:04;14.80;99.90
25438;DHT22;13364;49.084;9.978;2022-10-16T07:51:31;14.90;99.90
25438;DHT22;13364;49.084;9.978;2022-10-16T07:53:58;15.00;99.90
25438;DHT22;13364;49.084;9.978;2022-10-16T07:56:25;15.00;99.90
25438;DHT22;13364;49.084;9.978;2022-10-16T07:58:52;15.10;99.90
25438;DHT22;13364;49.084;9.978;2022-10-16T08:01:20;15.20;99.90
25438;DHT22;13364;49.084;9.978;2022-10-16T08:03:49;15.30;99.90
25438;DHT22;13364;49.084;9.978;2022-10-16T08:06:18;15.40;99.90
25438;DHT22;13364;49.084;9.978;2022-10-16T08:08:52;15.40;99.90
25438;DHT22;13364;49.084;9.978;2022-10-16T08:11:20;14.70;99.90
25438;DHT22;13364;49.084;9.978;2022-10-16T08:13:47;15.50;99.90
25438;DHT22;13364;49.084;9.978;2022-10-16T08:16:15;15.60;99.90
25438;DHT22;13364;49.084;9.978;2022-10-16T08:18:43;15.60;99.90
25438;DHT22;13364;49.084;9.978;2022-10-16T08:21:16;15.70;99.90
25438;DHT22;13364;49.084;9.978;2022-10-16T08:23:49;15.70;99.90
25438;DHT22;13364;49.084;9.978;2022-10-16T08:26:24;15.70;99.90
25438;DHT22;13364;49.084;9.978;2022-10-16T08:28:51;15.70;99.90
25438;DHT22;13364;49.084;9.978;2022-10-16T08:31:22;15.70;99.90
25438;DHT22;13364;49.084;9.978;2022-10-16T08:33:50;15.70;99.90
25438;DHT22;13364;49.084;9.978;2022-10-16T08:36:18;15.70;99.90
25438;DHT22;13364;49.084;9.978;2022-10-16T08:38:48;15.70;99.90
25438;DHT22;13364;49.084;9.978;2022-10-16T08:44:36;15.60;99.90
25438;DHT22;13364;49.084;9.978;2022-10-16T08:47:13;15.70;99.90
25438;DHT22;13364;49.084;9.978;2022-10-16T08:49:55;15.70;99.90
25438;DHT22;13364;49.084;9.978;2022-10-16T08:52:28;15.80;99.90
25438;DHT22;13364;49.084;9.978;2022-10-16T08:54:56;15.80;99.90
25438;DHT22;13364;49.084;9.978;2022-10-16T08:57:25;16.00;99.90
25438;DHT22;13364;49.084;9.978;2022-10-16T08:59:54;16.00;99.90
25438;DHT22;13364;49.084;9.978;2022-10-16T09:02:34;16.20;99.90
25438;DHT22;13364;49.084;9.978;2022-10-16T09:08:26;16.30;99.90
25438;DHT22;13364;49.084;9.978;2022-10-16T09:11:05;16.40;99.90
25438;DHT22;13364;49.084;9.978;2022-10-16T09:16:50;16.70;99.90
25438;DHT22;13364;49.084;9.978;2022-10-16T09:19:33;16.80;99.90
25438;DHT22;13364;49.084;9.978;2022-10-16T09:22:12;17.00;99.90
25438;DHT22;13364;49.084;9.978;2022-10-16T09:24:42;17.20;99.90
25438;DHT22;13364;49.084;9.978;2022-10-16T09:27:13;17.30;99.90
25438;DHT22;13364;49.084;9.978;2022-10-16T09:29:41;17.40;99.90
25438;DHT22;13364;49.084;9.978;2022-10-16T09:32:18;17.50;99.90
25438;DHT22;13364;49.084;9.978;2022-10-16T09:34:49;17.60;99.90
25438;DHT22;13364;49.084;9.978;2022-10-16T09:37:20;17.70;99.90
25438;DHT22;13364;49.084;9.978;2022-10-16T09:39:50;17.70;99.90
25438;DHT22;13364;49.084;9.978;2022-10-16T09:42:33;17.80;99.90
25438;DHT22;13364;49.084;9.978;2022-10-16T09:45:03;17.90;99.90
25438;DHT22;13364;49.084;9.978;2022-10-16T09:47:31;17.90;99.90
25438;DHT22;13364;49.084;9.978;2022-10-16T09:50:26;18.00;99.90
25438;DHT22;13364;49.084;9.978;2022-10-16T09:55:32;18.10;99.90
25438;DHT22;13364;49.084;9.978;2022-10-16T09:57:59;18.10;99.90
25438;DHT22;13364;49.084;9.978;2022-10-16T10:00:27;18.10;99.90
25438;DHT22;13364;49.084;9.978;2022-10-16T10:02:55;18.10;99.90
25438;DHT22;13364;49.084;9.978;2022-10-16T10:05:27;18.10;99.90
25438;DHT22;13364;49.084;9.978;2022-10-16T10:08:02;18.10;99.90
25438;DHT22;13364;49.084;9.978;2022-10-16T10:10:39;18.20;99.90
25438;DHT22;13364;49.084;9.978;2022-10-16T10:13:19;18.40;99.90
25438;DHT22;13364;49.084;9.978;2022-10-16T10:15:47;18.60;99.90
25438;DHT22;13364;49.084;9.978;2022-10-16T10:18:18;18.90;99.90
25438;DHT22;13364;49.084;9.978;2022-10-16T10:20:57;19.10;99.90
25438;DHT22;13364;49.084;9.978;2022-10-16T10:23:27;19.30;99.90
25438;DHT22;13364;49.084;9.978;2022-10-16T10:26:07;19.60;99.90
25438;DHT22;13364;49.084;9.978;2022-10-16T10:31:45;19.90;99.90
25438;DHT22;13364;49.084;9.978;2022-10-16T10:34:41;22.90;99.90
25438;DHT22;13364;49.084;9.978;2022-10-16T10:40:02;19.70;99.90
25438;DHT22;13364;49.084;9.978;2022-10-16T10:50:28;19.40;99.90
25438;DHT22;13364;49.084;9.978;2022-10-16T10:56:15;19.40;99.90
25438;DHT22;13364;49.084;9.978;2022-10-16T10:58:50;19.50;99.90
25438;DHT22;13364;49.084;9.978;2022-10-16T11:01:54;19.60;99.90
25438;DHT22;13364;49.084;9.978;2022-10-16T11:07:34;19.80;99.90
25438;DHT22;13364;49.084;9.978;2022-10-16T11:10:21;19.90;99.90
25438;DHT22;13364;49.084;9.978;2022-10-16T11:13:49;20.10;99.90
25438;DHT22;13364;49.084;9.978;2022-10-16T11:15:48;20.30;99.90
25438;DHT22;13364;49.084;9.978;2022-10-16T11:22:51;20.70;99.90
25438;DHT22;13364;49.084;9.978;2022-10-16T11:25:28;21.00;99.90
25438;DHT22;13364;49.084;9.978;2022-10-16T11:30:58;21.40;99.90
25438;DHT22;13364;49.084;9.978;2022-10-16T11:33:31;21.40;99.90
25438;DHT22;13364;49.084;9.978;2022-10-16T11:38:50;21.30;99.90
25438;DHT22;13364;49.084;9.978;2022-10-16T11:44:09;21.20;99.90
25438;DHT22;13364;49.084;9.978;2022-10-16T11:46:50;21.20;99.90
25438;DHT22;13364;49.084;9.978;2022-10-16T11:49:40;21.20;99.90
25438;DHT22;13364;49.084;9.978;2022-10-16T11:52:31;21.40;99.90
25438;DHT22;13364;49.084;9.978;2022-10-16T11:57:39;21.70;99.90
25438;DHT22;13364;49.084;9.978;2022-10-16T12:00:23;21.90;99.90
25438;DHT22;13364;49.084;9.978;2022-10-16T12:05:33;22.10;99.90
25438;DHT22;13364;49.084;9.978;2022-10-16T12:08:10;22.20;99.90
25438;DHT22;13364;49.084;9.978;2022-10-16T12:10:40;22.30;99.90
25438;DHT22;13364;49.084;9.978;2022-10-16T12:13:36;22.40;99.90
25438;DHT22;13364;49.084;9.978;2022-10-16T12:18:42;22.70;99.90
25438;DHT22;13364;49.084;9.978;2022-10-16T12:21:11;22.70;99.90
25438;DHT22;13364;49.084;9.978;2022-10-16T12:24:02;22.80;99.90
25438;DHT22;13364;49.084;9.978;2022-10-16T12:26:34;22.90;99.90
25438;DHT22;13364;49.084;9.978;2022-10-16T12:32:18;22.90;99.90
25438;DHT22;13364;49.084;9.978;2022-10-16T12:35:25;22.90;99.90
25438;DHT22;13364;49.084;9.978;2022-10-16T12:37:53;23.00;99.90
25438;DHT22;13364;49.084;9.978;2022-10-16T12:40:30;23.00;99.90
25438;DHT22;13364;49.084;9.978;2022-10-16T12:42:59;23.10;99.90
25438;DHT22;13364;49.084;9.978;2022-10-16T12:45:28;23.20;99.90
25438;DHT22;13364;49.084;9.978;2022-10-16T12:47:56;23.30;99.90
25438;DHT22;13364;49.084;9.978;2022-10-16T12:50:34;23.30;99.90
25438;DHT22;13364;49.084;9.978;2022-10-16T12:53:16;23.30;99.90
25438;DHT22;13364;49.084;9.978;2022-10-16T12:59:07;23.10;99.90
25438;DHT22;13364;49.084;9.978;2022-10-16T13:01:46;23.10;99.90
25438;DHT22;13364;49.084;9.978;2022-10-16T13:04:55;23.10;99.90
25438;DHT22;13364;49.084;9.978;2022-10-16T13:28:08;23.60;99.90
25438;DHT22;13364;49.084;9.978;2022-10-16T13:30:44;23.60;99.90
25438;DHT22;13364;49.084;9.978;2022-10-16T13:35:55;23.70;99.90
25438;DHT22;13364;49.084;9.978;2022-10-16T13:38:45;23.80;99.90
25438;DHT22;13364;49.084;9.978;2022-10-16T13:41:18;23.80;99.90
25438;DHT22;13364;49.084;9.978;2022-10-16T13:43:47;23.70;99.90
25438;DHT22;13364;49.084;9.978;2022-10-16T13:46:21;23.60;99.90
25438;DHT22;13364;49.084;9.978;2022-10-16T13:51:59;23.40;99.90
25438;DHT22;13364;49.084;9.978;2022-10-16T13:54:27;23.20;99.90
25438;DHT22;13364;49.084;9.978;2022-10-16T13:57:05;23.10;99.90
25438;DHT22;13364;49.084;9.978;2022-10-16T13:59:55;23.00;99.90
25438;DHT22;13364;49.084;9.978;2022-10-16T14:02:27;22.90;99.90
25438;DHT22;13364;49.084;9.978;2022-10-16T14:04:57;22.80;99.90
25438;DHT22;13364;49.084;9.978;2022-10-16T14:07:33;22.70;99.90
25438;DHT22;13364;49.084;9.978;2022-10-16T14:10:04;22.70;99.90
25438;DHT22;13364;49.084;9.978;2022-10-16T14:13:02;22.60;99.90
25438;DHT22;13364;49.084;9.978;2022-10-16T14:15:35;22.50;99.90
25438;DHT22;13364;49.084;9.978;2022-10-16T14:18:02;22.40;99.90
25438;DHT22;13364;49.084;9.978;2022-10-16T14:20:32;22.40;99.90
25438;DHT22;13364;49.084;9.978;2022-10-16T14:23:03;22.30;99.90
25438;DHT22;13364;49.084;9.978;2022-10-16T14:25:32;22.20;99.90
25438;DHT22;13364;49.084;9.978;2022-10-16T14:28:00;22.10;99.90
25438;DHT22;13364;49.084;9.978;2022-10-16T14:30:28;22.00;99.90
25438;DHT22;13364;49.084;9.978;2022-10-16T14:33:02;21.90;99.90
25438;DHT22;13364;49.084;9.978;2022-10-16T14:35:37;21.80;99.90
25438;DHT22;13364;49.084;9.978;2022-10-16T14:38:06;21.90;99.90
25438;DHT22;13364;49.084;9.978;2022-10-16T14:40:47;21.70;99.90
25438;DHT22;13364;49.084;9.978;2022-10-16T14:46:42;21.60;99.90
25438;DHT22;13364;49.084;9.978;2022-10-16T14:51:38;21.50;99.90
25438;DHT22;13364;49.084;9.978;2022-10-16T14:58:05;21.40;99.90
25438;DHT22;13364;49.084;9.978;2022-10-16T15:00:32;21.40;99.90
25438;DHT22;13364;49.084;9.978;2022-10-16T15:02:59;21.30;99.90
25438;DHT22;13364;49.084;9.978;2022-10-16T15:05:27;21.30;99.90
25438;DHT22;13364;49.084;9.978;2022-10-16T15:07:54;21.30;99.90
25438;DHT22;13364;49.084;9.978;2022-10-16T15:10:27;21.30;99.90
25438;DHT22;13364;49.084;9.978;2022-10-16T15:12:55;21.20;99.90
25438;DHT22;13364;49.084;9.978;2022-10-16T15:17:53;21.10;99.90
25438;DHT22;13364;49.084;9.978;2022-10-16T15:20:27;21.00;99.90
25438;DHT22;13364;49.084;9.978;2022-10-16T15:22:54;21.00;99.90
25438;DHT22;13364;49.084;9.978;2022-10-16T15:28:49;20.80;99.90
25438;DHT22;13364;49.084;9.978;2022-10-16T15:31:17;20.80;99.90
25438;DHT22;13364;49.084;9.978;2022-10-16T15:33:44;20.70;99.90
25438;DHT22;13364;49.084;9.978;2022-10-16T15:36:14;20.70;99.90
25438;DHT22;13364;49.084;9.978;2022-10-16T15:38:41;20.60;99.90
25438;DHT22;13364;49.084;9.978;2022-10-16T15:41:08;20.50;99.90
25438;DHT22;13364;49.084;9.978;2022-10-16T15:43:37;20.50;99.90
25438;DHT22;13364;49.084;9.978;2022-10-16T15:46:06;20.40;99.90
25438;DHT22;13364;49.084;9.978;2022-10-16T15:48:35;20.30;99.90
25438;DHT22;13364;49.084;9.978;2022-10-16T15:51:07;20.20;99.90
25438;DHT22;13364;49.084;9.978;2022-10-16T15:54:01;20.10;99.90
25438;DHT22;13364;49.084;9.978;2022-10-16T15:56:31;20.00;99.90
25438;DHT22;13364;49.084;9.978;2022-10-16T15:59:00;19.90;99.90
25438;DHT22;13364;49.084;9.978;2022-10-16T16:01:32;19.80;99.90
25438;DHT22;13364;49.084;9.978;2022-10-16T16:04:00;19.70;99.90
25438;DHT22;13364;49.084;9.978;2022-10-16T16:06:33;19.70;99.90
25438;DHT22;13364;49.084;9.978;2022-10-16T16:09:00;19.60;99.90
25438;DHT22;13364;49.084;9.978;2022-10-16T16:11:28;19.50;99.90
25438;DHT22;13364;49.084;9.978;2022-10-16T16:13:58;19.40;99.90
25438;DHT22;13364;49.084;9.978;2022-10-16T16:16:25;19.50;99.90
25438;DHT22;13364;49.084;9.978;2022-10-16T16:18:52;19.40;99.90
25438;DHT22;13364;49.084;9.978;2022-10-16T16:21:34;19.40;99.90
25438;DHT22;13364;49.084;9.978;2022-10-16T16:24:01;19.30;99.90
25438;DHT22;13364;49.084;9.978;2022-10-16T16:26:34;19.30;99.90
25438;DHT22;13364;49.084;9.978;2022-10-16T16:29:04;19.20;99.90
25438;DHT22;13364;49.084;9.978;2022-10-16T16:31:32;19.10;99.90
25438;DHT22;13364;49.084;9.978;2022-10-16T16:34:00;19.10;99.90
25438;DHT22;13364;49.084;9.978;2022-10-16T16:36:28;19.10;99.90
25438;DHT22;13364;49.084;9.978;2022-10-16T16:38:56;19.00;99.90
25438;DHT22;13364;49.084;9.978;2022-10-16T16:41:25;19.00;99.90
25438;DHT22;13364;49.084;9.978;2022-10-16T16:43:54;18.90;99.90
25438;DHT22;13364;49.084;9.978;2022-10-16T16:46:22;18.80;99.90
25438;DHT22;13364;49.084;9.978;2022-10-16T16:48:49;18.80;99.90
25438;DHT22;13364;49.084;9.978;2022-10-16T16:51:22;18.80;99.90
25438;DHT22;13364;49.084;9.978;2022-10-16T16:57:19;18.70;99.90
25438;DHT22;13364;49.084;9.978;2022-10-16T16:59:47;18.60;99.90
25438;DHT22;13364;49.084;9.978;2022-10-16T17:02:16;18.60;99.90
25438;DHT22;13364;49.084;9.978;2022-10-16T17:04:43;18.60;99.90
25438;DHT22;13364;49.084;9.978;2022-10-16T17:07:10;18.50;99.90
25438;DHT22;13364;49.084;9.978;2022-10-16T17:09:38;18.50;99.90
25438;DHT22;13364;49.084;9.978;2022-10-16T17:12:05;18.50;99.90
25438;DHT22;13364;49.084;9.978;2022-10-16T17:14:32;18.40;99.90
25438;DHT22;13364;49.084;9.978;2022-10-16T17:16:59;18.30;99.90
25438;DHT22;13364;49.084;9.978;2022-10-16T17:19:26;18.30;99.90
25438;DHT22;13364;49.084;9.978;2022-10-16T17:21:53;18.20;99.90
25438;DHT22;13364;49.084;9.978;2022-10-16T17:24:20;18.20;99.90
25438;DHT22;13364;49.084;9.978;2022-10-16T17:26:48;18.10;99.90
25438;DHT22;13364;49.084;9.978;2022-10-16T17:29:16;18.10;99.90
25438;DHT22;13364;49.084;9.978;2022-10-16T17:31:44;18.10;99.90
25438;DHT22;13364;49.084;9.978;2022-10-16T17:34:11;18.00;99.90
25438;DHT22;13364;49.084;9.978;2022-10-16T17:36:39;18.00;99.90
25438;DHT22;13364;49.084;9.978;2022-10-16T17:39:15;18.00;99.90
25438;DHT22;13364;49.084;9.978;2022-10-16T17:41:44;18.00;99.90
25438;DHT22;13364;49.084;9.978;2022-10-16T17:44:12;18.00;99.90
25438;DHT22;13364;49.084;9.978;2022-10-16T17:46:47;17.90;99.90
25438;DHT22;13364;49.084;9.978;2022-10-16T17:49:15;17.90;99.90
25438;DHT22;13364;49.084;9.978;2022-10-16T17:51:42;17.90;99.90
25438;DHT22;13364;49.084;9.978;2022-10-16T17:54:10;17.80;99.90
25438;DHT22;13364;49.084;9.978;2022-10-16T17:56:40;17.80;99.90
25438;DHT22;13364;49.084;9.978;2022-10-16T17:59:08;17.80;99.90
25438;DHT22;13364;49.084;9.978;2022-10-16T18:01:37;17.80;99.90
25438;DHT22;13364;49.084;9.978;2022-10-16T18:04:08;17.70;99.90